Time;durP1;ratioP1;P1;durP2;ratioP2;P2;SDS_P1;SDS_P2;PMS_P1;PMS_P2;Temp;Humidity;BMP_temperature;BMP_pressure;BME280_temperature;BME280_humidity;BME280_pressure;Samples;Min_cycle;Max_cycle;Signal;HPM_P1;HPM_P2
2021/06/21 00:00:26;;;;;;;;;6.75;6.75;;;;;20.29;80.38;100202.78;4970505;28;45768;-77
2021/06/21 00:02:52;;;;;;;;;6.25;6.00;;;;;20.24;80.04;100189.22;4970010;28;45519;-78
2021/06/21 00:05:17;;;;;;;;;5.50;5.50;;;;;20.21;79.80;100185.13;4965386;28;46376;-78
2021/06/21 00:07:43;;;;;;;;;6.25;6.00;;;;;20.23;80.50;100188.41;4969111;28;46106;-78
2021/06/21 00:10:12;;;;;;;;;6.75;5.75;;;;;20.27;80.13;100200.31;4966380;28;45858;-79
2021/06/21 00:12:40;;;;;;;;;5.50;5.50;;;;;20.27;80.50;100207.56;4970645;28;45472;-78
2021/06/21 00:15:07;;;;;;;;;6.00;6.00;;;;;20.26;79.93;100204.06;4965790;28;47131;-79
2021/06/21 00:17:33;;;;;;;;;6.00;6.00;;;;;20.23;81.42;100191.09;4966575;28;45604;-79
2021/06/21 00:19:58;;;;;;;;;7.00;7.00;;;;;20.26;81.72;100192.50;4967403;28;45714;-78
2021/06/21 00:22:24;;;;;;;;;7.75;6.00;;;;;20.23;80.18;100199.16;4965964;28;45573;-78
2021/06/21 00:24:49;;;;;;;;;5.00;4.75;;;;;20.25;79.63;100206.94;4966978;28;45578;-78
2021/06/21 00:27:16;;;;;;;;;5.00;5.00;;;;;20.22;79.54;100218.13;4968608;28;45453;-78
2021/06/21 00:29:41;;;;;;;;;8.75;7.25;;;;;20.17;80.24;100211.56;4965337;28;45809;-79
2021/06/21 00:32:07;;;;;;;;;5.00;4.50;;;;;20.20;80.94;100221.03;4967926;28;45650;-78
2021/06/21 00:34:33;;;;;;;;;8.25;7.25;;;;;20.24;81.92;100221.44;4967714;28;45493;-78
2021/06/21 00:36:59;;;;;;;;;7.50;7.00;;;;;20.25;80.98;100218.53;4966353;28;45445;-78
2021/06/21 00:39:24;;;;;;;;;7.25;6.25;;;;;20.28;81.11;100222.63;4970921;28;45373;-79
2021/06/21 00:41:50;;;;;;;;;7.75;7.75;;;;;20.31;81.31;100228.34;4963150;28;45575;-78
2021/06/21 00:44:15;;;;;;;;;6.50;6.50;;;;;20.33;80.80;100220.88;4967158;28;45710;-78
2021/06/21 00:46:41;;;;;;;;;7.00;7.00;;;;;20.34;81.26;100222.50;4966120;28;45483;-78
2021/06/21 00:49:06;;;;;;;;;8.25;7.50;;;;;20.32;80.74;100221.91;4967858;28;45793;-79
2021/06/21 00:51:32;;;;;;;;;8.50;8.50;;;;;20.35;81.16;100224.19;4969825;28;45577;-78
2021/06/21 00:53:59;;;;;;;;;7.50;7.50;;;;;20.33;82.01;100206.66;4965492;28;46384;-78
2021/06/21 00:56:25;;;;;;;;;8.75;8.25;;;;;20.36;81.39;100209.69;4966263;28;45504;-78
2021/06/21 00:58:56;;;;;;;;;8.75;8.25;;;;;20.33;81.10;100203.97;4964760;28;45959;-77
2021/06/21 01:01:21;;;;;;;;;12.00;10.00;;;;;20.35;81.16;100218.81;4964845;28;45582;-78
2021/06/21 01:03:47;;;;;;;;;12.25;10.75;;;;;20.33;80.81;100217.41;4968081;28;46243;-78
2021/06/21 01:06:12;;;;;;;;;9.25;9.25;;;;;20.34;80.60;100225.19;4968014;28;45473;-77
2021/06/21 01:08:37;;;;;;;;;10.75;9.50;;;;;20.30;81.06;100220.50;4966636;28;45580;-78
2021/06/21 01:11:03;;;;;;;;;8.75;8.00;;;;;20.22;80.51;100202.84;4964272;28;49476;-78
2021/06/21 01:13:45;;;;;;;;;8.00;8.00;;;;;20.28;81.69;100212.69;4964508;28;45686;-77
2021/06/21 01:16:32;;;;;;;;;9.00;8.25;;;;;20.26;81.54;100206.75;4965818;28;59267;-78
2021/06/21 01:19:20;;;;;;;;;11.75;8.75;;;;;20.18;80.85;100207.06;4967682;28;45570;-78
2021/06/21 01:22:03;;;;;;;;;12.00;11.00;;;;;20.20;80.64;100210.31;4966630;28;45561;-78
2021/06/21 01:24:53;;;;;;;;;9.00;8.50;;;;;20.15;81.48;100213.69;4969719;28;45562;-77
2021/06/21 01:27:50;;;;;;;;;7.75;7.00;;;;;20.10;81.07;100212.69;4969472;28;45510;-78
2021/06/21 01:30:18;;;;;;;;;8.00;7.50;;;;;20.06;81.81;100215.03;4968005;28;45650;-78
2021/06/21 01:33:00;;;;;;;;;8.25;8.00;;;;;20.02;82.18;100215.69;4964505;28;45754;-78
2021/06/21 01:35:43;;;;;;;;;7.00;7.00;;;;;20.10;81.45;100226.13;4958848;28;45691;-78
2021/06/21 01:38:16;;;;;;;;;9.50;9.00;;;;;20.13;82.09;100231.06;4960749;28;45552;-78
2021/06/21 01:40:46;;;;;;;;;7.50;7.00;;;;;20.07;82.10;100216.66;4962924;28;45507;-78
2021/06/21 01:43:16;;;;;;;;;7.25;7.25;;;;;20.07;82.16;100211.28;4963717;28;45555;-78
2021/06/21 01:45:45;;;;;;;;;9.75;8.75;;;;;20.16;82.32;100214.50;4967286;28;45526;-78
2021/06/21 01:48:12;;;;;;;;;11.25;10.25;;;;;20.12;82.13;100218.66;4969098;28;45563;-78
2021/06/21 01:50:39;;;;;;;;;16.25;16.00;;;;;20.09;82.07;100219.94;4964856;28;45515;-78
2021/06/21 01:53:12;;;;;;;;;14.50;12.75;;;;;20.11;82.19;100227.78;4963222;28;45508;-77
2021/06/21 01:55:44;;;;;;;;;15.00;11.50;;;;;20.07;80.96;100227.38;4962697;28;46283;-77
2021/06/21 01:58:11;;;;;;;;;14.75;11.50;;;;;19.95;81.24;100230.00;4964074;28;45525;-78
2021/06/21 02:00:39;;;;;;;;;12.75;11.75;;;;;19.92;81.15;100235.81;4967173;28;45512;-78
2021/06/21 02:03:05;;;;;;;;;10.50;10.50;;;;;19.78;80.37;100228.94;4963621;28;45646;-78
2021/06/21 02:05:34;;;;;;;;;9.50;8.00;;;;;19.74;80.09;100238.47;4965469;28;45764;-78
2021/06/21 02:08:00;;;;;;;;;11.00;8.75;;;;;19.66;80.72;100233.38;4963667;28;45520;-78
2021/06/21 02:10:27;;;;;;;;;6.50;6.00;;;;;19.64;79.91;100238.13;4966533;28;46092;-78
2021/06/21 02:12:53;;;;;;;;;6.25;5.25;;;;;19.58;80.78;100234.47;4966743;28;45439;-78
2021/06/21 02:15:21;;;;;;;;;7.00;5.00;;;;;19.52;79.37;100236.16;4968695;28;45507;-78
2021/06/21 02:17:47;;;;;;;;;4.75;4.75;;;;;19.52;79.96;100243.38;4964144;28;45386;-78
2021/06/21 02:20:14;;;;;;;;;1.75;1.75;;;;;19.44;79.02;100239.13;4963932;28;45516;-78
2021/06/21 02:22:40;;;;;;;;;2.75;2.75;;;;;19.39;78.85;100246.19;4965411;28;45830;-78
2021/06/21 02:25:07;;;;;;;;;3.75;2.75;;;;;19.29;80.02;100239.47;4965378;28;46133;-78
2021/06/21 02:27:34;;;;;;;;;3.00;2.75;;;;;19.28;80.17;100245.03;4973774;28;45523;-78
2021/06/21 02:30:01;;;;;;;;;2.75;2.75;;;;;19.23;79.65;100247.53;4980647;28;45466;-77
2021/06/21 02:32:26;;;;;;;;;3.75;2.75;;;;;19.15;80.08;100239.78;4963878;28;45478;-78
2021/06/21 02:34:53;;;;;;;;;2.00;2.00;;;;;19.13;80.22;100254.19;4964813;28;45862;-77
2021/06/21 02:37:19;;;;;;;;;2.00;2.00;;;;;19.07;79.83;100249.72;4963753;28;45556;-78
2021/06/21 02:39:45;;;;;;;;;3.00;3.00;;;;;18.97;79.92;100249.38;4964684;28;45450;-77
2021/06/21 02:42:10;;;;;;;;;4.50;4.50;;;;;18.96;79.46;100257.63;4964298;28;45460;-78
2021/06/21 02:44:36;;;;;;;;;4.00;4.00;;;;;18.91;79.62;100250.22;4965708;28;48189;-77
2021/06/21 02:47:03;;;;;;;;;3.00;3.00;;;;;18.91;79.43;100258.25;4963363;28;45507;-77
2021/06/21 02:49:28;;;;;;;;;3.25;3.00;;;;;18.81;79.90;100257.91;4963752;28;45492;-77
2021/06/21 02:52:24;;;;;;;;;2.75;2.50;;;;;18.67;79.46;100249.94;4965606;28;45567;-78
2021/06/21 02:55:08;;;;;;;;;4.00;4.00;;;;;18.66;80.77;100253.63;4962953;28;45612;-77
2021/06/21 02:57:59;;;;;;;;;5.00;5.00;;;;;18.67;80.70;100260.66;4982403;28;45623;-77
2021/06/21 03:00:26;;;;;;;;;4.75;4.75;;;;;18.60;80.79;100254.50;4969893;28;45512;-79
2021/06/21 03:02:55;;;;;;;;;3.50;3.50;;;;;18.69;80.92;100279.16;4963187;28;45560;-77
2021/06/21 03:05:22;;;;;;;;;4.00;4.00;;;;;18.61;80.88;100266.03;4963675;28;45604;-77
2021/06/21 03:07:49;;;;;;;;;4.25;3.25;;;;;18.64;81.14;100276.28;4962501;28;45512;-77
2021/06/21 03:10:16;;;;;;;;;4.75;4.00;;;;;18.68;81.88;100278.34;4965759;28;45516;-77
2021/06/21 03:12:44;;;;;;;;;4.00;4.00;;;;;18.69;81.27;100280.00;4967286;28;45548;-78
2021/06/21 03:15:12;;;;;;;;;5.00;4.00;;;;;18.73;81.11;100282.22;4966078;28;45500;-77
2021/06/21 03:17:38;;;;;;;;;5.25;5.25;;;;;18.73;81.01;100282.22;4965035;28;45796;-76
2021/06/21 03:20:04;;;;;;;;;4.50;4.50;;;;;18.72;80.49;100292.13;4962809;28;45569;-77
2021/06/21 03:22:30;;;;;;;;;6.50;5.00;;;;;18.68;81.92;100282.88;4963933;28;45383;-79
2021/06/21 03:24:56;;;;;;;;;5.50;5.50;;;;;18.71;81.28;100274.41;4968035;28;45851;-76
2021/06/21 03:27:34;;;;;;;;;5.25;4.50;;;;;18.78;81.27;100279.78;4976649;28;45554;-75
2021/06/21 03:30:02;;;;;;;;;5.00;5.00;;;;;18.75;80.68;100285.53;4970743;28;45651;-75
2021/06/21 03:32:31;;;;;;;;;7.50;7.00;;;;;18.75;81.25;100280.16;4969947;28;45418;-75
2021/06/21 03:35:00;;;;;;;;;6.00;5.00;;;;;18.80;81.86;100283.06;4970939;28;46514;-76
2021/06/21 03:37:29;;;;;;;;;6.75;6.00;;;;;18.82;81.33;100276.44;4972402;28;46081;-76
2021/06/21 03:39:56;;;;;;;;;7.00;6.50;;;;;18.84;80.45;100276.22;4972277;28;45595;-75
2021/06/21 03:42:22;;;;;;;;;4.50;4.50;;;;;18.79;80.68;100279.56;4974052;28;45499;-76
2021/06/21 03:44:48;;;;;;;;;5.75;5.75;;;;;18.81;81.24;100284.69;4968035;28;45870;-74
2021/06/21 03:47:15;;;;;;;;;6.50;6.50;;;;;18.76;81.23;100266.59;4969357;28;45777;-75
2021/06/21 03:49:44;;;;;;;;;8.50;6.00;;;;;18.84;81.67;100278.91;4971736;28;45737;-75
2021/06/21 03:52:09;;;;;;;;;6.00;6.00;;;;;18.84;81.87;100287.78;4970249;28;45526;-75
2021/06/21 03:54:34;;;;;;;;;9.00;7.00;;;;;18.85;81.16;100289.41;4972916;28;45998;-76
2021/06/21 03:57:00;;;;;;;;;5.50;5.50;;;;;18.83;80.79;100290.66;4969426;28;45543;-76
2021/06/21 03:59:25;;;;;;;;;7.50;7.00;;;;;18.77;80.53;100292.34;4969037;28;45387;-75
2021/06/21 04:01:52;;;;;;;;;6.00;6.00;;;;;18.75;81.78;100293.56;4971054;28;45641;-76
2021/06/21 04:04:18;;;;;;;;;8.50;6.50;;;;;18.75;81.81;100294.38;4970773;28;45741;-76
2021/06/21 04:06:43;;;;;;;;;9.25;8.00;;;;;18.80;81.44;100301.78;4974629;28;45425;-76
2021/06/21 04:09:09;;;;;;;;;7.25;7.25;;;;;18.79;82.08;100300.13;4973750;28;45591;-75
2021/06/21 04:11:36;;;;;;;;;9.25;7.00;;;;;18.85;81.97;100305.47;4970350;28;45756;-76
2021/06/21 04:14:02;;;;;;;;;7.00;7.00;;;;;18.87;81.91;100302.59;4971498;28;55669;-75
2021/06/21 04:16:27;;;;;;;;;7.75;6.00;;;;;18.88;82.04;100301.53;4972399;28;45711;-76
2021/06/21 04:18:53;;;;;;;;;9.00;7.00;;;;;18.91;81.45;100304.59;4971490;28;45571;-78
2021/06/21 04:21:18;;;;;;;;;7.50;7.50;;;;;18.92;81.17;100305.44;4974771;28;45453;-77
2021/06/21 04:23:43;;;;;;;;;7.00;7.00;;;;;18.92;80.62;100310.78;4958871;28;51440;-77
2021/06/21 04:26:09;;;;;;;;;7.00;7.00;;;;;18.92;80.79;100310.78;4964017;28;45567;-81
2021/06/21 04:28:34;;;;;;;;;8.00;8.00;;;;;18.91;80.67;100314.50;4969043;28;45755;-75
2021/06/21 04:31:00;;;;;;;;;8.25;8.00;;;;;18.92;81.91;100318.81;4967703;28;46089;-76
2021/06/21 04:33:25;;;;;;;;;8.50;8.50;;;;;18.89;81.43;100305.84;4973512;28;46235;-76
2021/06/21 04:35:51;;;;;;;;;12.00;11.00;;;;;18.88;80.02;100314.94;4969536;28;46090;-81
2021/06/21 04:38:22;;;;;;;;;7.75;7.75;;;;;18.82;79.96;100310.44;4978613;28;45848;-77
2021/06/21 04:40:49;;;;;;;;;9.75;9.00;;;;;18.83;80.86;100312.06;4966252;28;45631;-77
2021/06/21 04:43:14;;;;;;;;;9.00;7.00;;;;;18.85;81.11;100315.34;4959637;28;45903;-75
2021/06/21 04:45:40;;;;;;;;;10.25;8.25;;;;;18.88;79.50;100322.97;4968502;28;45458;-78
2021/06/21 04:48:06;;;;;;;;;12.00;8.75;;;;;18.91;80.16;100330.56;4962723;28;45470;-75
2021/06/21 04:50:34;;;;;;;;;9.25;8.50;;;;;18.94;80.74;100321.28;4961769;28;45624;-77
2021/06/21 04:53:00;;;;;;;;;10.75;8.00;;;;;19.00;81.25;100315.88;4964360;28;46155;-77
2021/06/21 04:55:26;;;;;;;;;7.75;7.75;;;;;19.07;80.48;100323.91;4961640;28;45507;-78
2021/06/21 04:57:51;;;;;;;;;8.00;7.50;;;;;19.12;79.65;100324.88;4967340;28;45661;-77
2021/06/21 05:00:19;;;;;;;;;7.75;7.75;;;;;19.10;79.71;100326.13;4965001;28;45638;-78
2021/06/21 05:02:46;;;;;;;;;11.00;9.75;;;;;19.10;79.85;100329.63;4963923;28;45712;-77
2021/06/21 05:05:12;;;;;;;;;9.25;9.25;;;;;19.12;79.60;100327.56;4966098;28;45949;-77
2021/06/21 05:07:40;;;;;;;;;11.75;9.25;;;;;19.16;78.98;100329.81;4964929;28;46199;-77
2021/06/21 05:10:07;;;;;;;;;6.00;6.00;;;;;19.21;79.05;100348.72;4962469;28;45582;-77
2021/06/21 05:12:33;;;;;;;;;10.75;9.00;;;;;19.17;79.59;100336.81;4970861;28;46381;-77
2021/06/21 05:14:58;;;;;;;;;8.00;8.00;;;;;19.23;80.09;100339.44;4967171;28;45824;-77
2021/06/21 05:17:23;;;;;;;;;8.00;8.00;;;;;19.27;79.68;100345.19;4968520;28;45524;-77
2021/06/21 05:19:49;;;;;;;;;8.00;7.50;;;;;19.30;78.70;100339.41;4967375;28;45570;-77
2021/06/21 05:22:14;;;;;;;;;11.00;8.75;;;;;19.33;79.85;100347.81;4961190;28;46673;-75
2021/06/21 05:24:40;;;;;;;;;9.75;8.00;;;;;19.31;79.17;100341.88;4967088;28;45455;-77
2021/06/21 05:27:05;;;;;;;;;9.75;9.75;;;;;19.31;78.93;100336.53;4962525;28;45688;-77
2021/06/21 05:29:32;;;;;;;;;10.25;7.50;;;;;19.34;77.08;100337.94;4963784;28;45657;-77
2021/06/21 05:31:57;;;;;;;;;9.00;8.00;;;;;19.31;77.79;100338.34;4961640;28;46210;-77
2021/06/21 05:34:25;;;;;;;;;8.00;8.00;;;;;19.29;77.81;100340.47;4966422;28;45491;-77
2021/06/21 05:36:50;;;;;;;;;9.50;9.50;;;;;19.34;78.05;100345.97;4967641;28;45583;-76
2021/06/21 05:39:16;;;;;;;;;10.00;8.25;;;;;19.34;76.48;100344.13;4965086;28;45421;-77
2021/06/21 05:41:41;;;;;;;;;12.75;10.00;;;;;19.34;77.29;100345.97;4961378;28;45935;-76
2021/06/21 05:44:06;;;;;;;;;11.50;9.75;;;;;19.37;77.21;100366.97;4963081;28;45408;-76
2021/06/21 05:46:32;;;;;;;;;9.25;9.25;;;;;19.32;77.52;100358.78;4964908;28;45652;-78
2021/06/21 05:48:57;;;;;;;;;11.25;10.00;;;;;19.26;77.83;100352.44;4960849;28;46117;-79
2021/06/21 05:51:23;;;;;;;;;10.75;10.25;;;;;19.30;78.49;100360.84;4966209;28;45480;-76
2021/06/21 05:53:48;;;;;;;;;15.00;11.25;;;;;19.30;77.72;100364.34;4963540;28;45801;-78
2021/06/21 05:56:14;;;;;;;;;8.50;8.50;;;;;19.28;78.01;100374.44;4963751;28;45709;-76
2021/06/21 05:58:41;;;;;;;;;10.50;10.00;;;;;19.17;77.60;100368.97;4969285;28;45444;-76
2021/06/21 06:01:06;;;;;;;;;11.00;11.00;;;;;19.26;79.05;100376.53;4961689;28;46739;-78
2021/06/21 06:03:32;;;;;;;;;9.75;9.00;;;;;19.43;77.53;100384.84;4966193;28;45512;-77
2021/06/21 06:05:58;;;;;;;;;11.75;10.50;;;;;19.55;77.40;100385.81;4963024;28;45633;-77
2021/06/21 06:08:24;;;;;;;;;11.25;11.00;;;;;19.78;78.98;100379.06;4961860;28;45645;-79
2021/06/21 06:10:49;;;;;;;;;12.50;10.75;;;;;20.00;76.65;100382.19;4960298;28;47978;-76
2021/06/21 06:13:15;;;;;;;;;8.00;8.00;;;;;20.08;76.54;100390.00;4960979;28;45601;-76
2021/06/21 06:15:40;;;;;;;;;11.50;11.50;;;;;20.04;75.23;100401.38;4962275;28;45693;-78
2021/06/21 06:18:06;;;;;;;;;10.25;10.00;;;;;19.91;76.06;100397.75;4958378;28;45804;-76
2021/06/21 06:20:31;;;;;;;;;13.00;11.50;;;;;19.86;75.46;100397.59;4960896;28;46365;-79
2021/06/21 06:22:56;;;;;;;;;13.25;12.50;;;;;19.79;76.09;100402.19;4964975;28;45548;-77
2021/06/21 06:25:25;;;;;;;;;12.00;9.50;;;;;19.82;76.31;100400.94;4961765;28;45623;-76
2021/06/21 06:27:50;;;;;;;;;10.25;9.75;;;;;19.89;77.72;100396.34;4968769;28;45792;-76
2021/06/21 06:30:16;;;;;;;;;9.00;7.50;;;;;20.00;76.09;100392.13;4966796;28;46246;-76
2021/06/21 06:32:42;;;;;;;;;12.75;9.25;;;;;20.12;74.79;100407.25;4963096;28;45718;-76
2021/06/21 06:35:09;;;;;;;;;8.00;7.25;;;;;20.15;74.28;100398.81;4959114;28;45445;-74
2021/06/21 06:37:35;;;;;;;;;9.00;8.50;;;;;20.32;76.20;100399.03;4949948;28;45559;-74
2021/06/21 06:40:01;;;;;;;;;13.00;9.50;;;;;20.67;76.07;100395.78;4957144;28;46142;-74
2021/06/21 06:42:26;;;;;;;;;10.25;9.00;;;;;20.92;73.75;100381.47;4960450;28;45479;-75
2021/06/21 06:44:52;;;;;;;;;9.50;7.50;;;;;21.14;73.78;100382.66;4961147;28;45842;-77
2021/06/21 06:47:17;;;;;;;;;10.75;8.25;;;;;21.42;73.25;100379.38;4958980;28;45679;-75
2021/06/21 06:49:43;;;;;;;;;13.50;9.25;;;;;21.60;72.00;100375.78;4958846;28;57459;-74
2021/06/21 06:52:09;;;;;;;;;12.00;8.00;;;;;21.62;71.52;100373.69;4958770;28;45904;-75
2021/06/21 06:57:20;;;;;;;;;8.50;6.75;;;;;21.68;70.31;100375.44;4979583;28;45671;-75
2021/06/21 06:59:46;;;;;;;;;9.50;7.75;;;;;21.77;68.90;100381.31;4954849;28;46283;-75
2021/06/21 07:02:21;;;;;;;;;7.75;6.50;;;;;21.82;69.83;100386.81;4979489;28;45717;-74
2021/06/21 07:04:47;;;;;;;;;8.50;6.25;;;;;21.93;69.33;100382.50;4979992;28;45602;-76
2021/06/21 07:07:12;;;;;;;;;7.50;7.50;;;;;22.04;68.08;100384.38;4979575;28;45556;-74
2021/06/21 07:09:38;;;;;;;;;9.25;7.00;;;;;22.05;67.57;100386.00;4982179;28;47725;-74
2021/06/21 07:12:04;;;;;;;;;8.50;8.25;;;;;22.06;67.00;100384.97;4978596;28;45954;-74
2021/06/21 07:14:30;;;;;;;;;7.25;6.00;;;;;22.26;66.96;100389.22;4979225;28;45563;-73
2021/06/21 07:16:56;;;;;;;;;6.50;6.50;;;;;22.42;65.61;100396.56;4979640;28;45591;-74
2021/06/21 07:19:21;;;;;;;;;6.75;6.75;;;;;22.54;67.10;100394.69;4979643;28;46210;-73
2021/06/21 07:21:51;;;;;;;;;8.50;8.25;;;;;22.82;66.29;100397.66;4979997;28;45437;-74
2021/06/21 07:24:17;;;;;;;;;6.00;6.00;;;;;22.95;66.58;100392.84;4982143;28;45678;-73
2021/06/21 07:26:43;;;;;;;;;6.25;6.25;;;;;23.26;65.89;100398.84;4977498;28;45611;-73
2021/06/21 07:29:10;;;;;;;;;6.75;6.00;;;;;23.46;64.32;100408.38;4977166;28;46524;-74
2021/06/21 07:31:36;;;;;;;;;7.50;6.00;;;;;23.50;64.75;100421.13;4975286;28;46006;-74
2021/06/21 07:34:03;;;;;;;;;8.00;5.25;;;;;23.44;63.91;100415.88;4971466;28;45401;-74
2021/06/21 07:36:29;;;;;;;;;6.50;6.25;;;;;23.37;63.38;100422.25;4964386;28;45814;-75
2021/06/21 07:38:54;;;;;;;;;6.50;4.50;;;;;23.27;63.53;100415.81;4959963;28;45470;-75
2021/06/21 07:41:20;;;;;;;;;7.00;5.50;;;;;23.21;63.83;100428.41;4958305;28;45539;-74
2021/06/21 07:43:45;;;;;;;;;6.00;5.75;;;;;23.16;62.99;100417.53;4961681;28;45594;-74
2021/06/21 07:46:11;;;;;;;;;6.50;6.50;;;;;23.20;63.92;100426.78;4960657;28;45425;-73
2021/06/21 07:48:40;;;;;;;;;6.50;5.25;;;;;23.31;63.30;100422.38;4963951;28;45615;-75
2021/06/21 07:51:08;;;;;;;;;7.00;6.00;;;;;23.37;61.34;100422.25;4960088;28;45480;-74
2021/06/21 07:53:38;;;;;;;;;9.75;8.75;;;;;23.28;60.15;100426.38;4959046;28;45551;-75
2021/06/21 07:56:05;;;;;;;;;7.75;7.00;;;;;23.12;62.20;100425.28;4961740;28;45448;-74
2021/06/21 07:58:32;;;;;;;;;7.00;6.50;;;;;23.20;62.50;100434.03;4961116;28;46661;-74
2021/06/21 08:00:58;;;;;;;;;7.25;6.25;;;;;23.54;63.07;100437.63;4963154;28;45791;-75
2021/06/21 08:03:24;;;;;;;;;7.50;6.25;;;;;23.97;62.66;100437.06;4964118;28;46539;-75
2021/06/21 08:05:50;;;;;;;;;6.00;6.00;;;;;24.47;60.89;100443.50;4976263;28;46516;-73
2021/06/21 08:08:15;;;;;;;;;5.75;4.75;;;;;24.91;59.65;100443.56;4957534;28;45978;-74
2021/06/21 08:10:41;;;;;;;;;7.75;6.00;;;;;25.37;58.78;100438.72;4959313;28;46434;-72
2021/06/21 08:13:06;;;;;;;;;5.00;5.00;;;;;26.41;56.92;100452.03;4960218;28;45647;-73
2021/06/21 08:15:32;;;;;;;;;5.00;4.00;;;;;27.10;55.86;100449.19;4967238;28;45724;-73
2021/06/21 08:17:58;;;;;;;;;6.00;5.00;;;;;27.88;53.97;100442.84;4968638;28;45844;-73
2021/06/21 08:20:23;;;;;;;;;5.25;4.00;;;;;30.72;51.64;100441.84;4962689;28;45876;-72
2021/06/21 08:22:49;;;;;;;;;4.00;4.00;;;;;32.35;36.03;100458.56;4961638;28;45535;-73
2021/06/21 08:25:14;;;;;;;;;3.00;3.00;;;;;31.09;43.91;100446.59;4964841;28;45783;-72
2021/06/21 08:27:40;;;;;;;;;4.25;4.00;;;;;30.80;46.28;100465.75;4960476;28;46065;-72
2021/06/21 08:30:07;;;;;;;;;5.00;3.00;;;;;30.95;44.88;100453.88;4962500;28;46020;-72
2021/06/21 08:32:32;;;;;;;;;4.25;4.25;;;;;31.07;38.58;100448.81;4964393;28;45466;-73
2021/06/21 08:34:58;;;;;;;;;5.75;4.00;;;;;31.48;44.75;100446.34;4959417;28;45464;-74
2021/06/21 08:37:24;;;;;;;;;6.50;5.50;;;;;31.23;44.97;100452.13;4963468;28;46255;-72
2021/06/21 08:39:51;;;;;;;;;4.00;4.00;;;;;30.58;44.29;100453.44;4964725;28;45544;-73
2021/06/21 08:42:20;;;;;;;;;5.00;4.00;;;;;30.66;43.49;100452.00;4963533;28;45705;-72
2021/06/21 08:44:46;;;;;;;;;5.25;5.00;;;;;32.59;43.75;100463.06;4960005;28;45826;-73
2021/06/21 08:47:16;;;;;;;;;4.50;3.75;;;;;34.89;40.53;100457.56;4962296;28;46251;-73
2021/06/21 08:49:46;;;;;;;;;3.25;3.25;;;;;36.78;35.42;100458.00;4960613;28;48311;-73
2021/06/21 08:52:13;;;;;;;;;3.00;3.00;;;;;38.06;27.75;100464.78;4958106;28;45492;-74
2021/06/21 08:54:39;;;;;;;;;4.00;1.75;;;;;38.21;31.64;100474.34;4963945;28;46010;-73
2021/06/21 08:57:05;;;;;;;;;2242.50;2242.50;;;;;37.75;31.10;100473.50;4959500;28;45601;-74
2021/06/21 08:59:31;;;;;;;;;917.50;917.00;;;;;37.20;34.03;100469.91;4977815;28;45489;-73
2021/06/21 09:01:57;;;;;;;;;2.00;2.00;;;;;37.03;32.79;100470.00;4977259;28;46097;-73
2021/06/21 09:04:24;;;;;;;;;2.00;1.00;;;;;36.82;32.76;100480.94;4983555;28;45549;-73
2021/06/21 09:06:50;;;;;;;;;1.50;1.50;;;;;37.14;33.04;100471.25;4985107;28;46605;-73
2021/06/21 09:09:16;;;;;;;;;2.25;1.00;;;;;38.02;31.61;100468.56;4981121;28;45867;-73
2021/06/21 09:11:44;;;;;;;;;84.50;84.50;;;;;38.95;31.30;100468.06;4978021;28;45420;-73
2021/06/21 09:14:25;;;;;;;;;0.25;0.25;;;;;39.70;30.99;100470.28;4975862;28;45735;-73
2021/06/21 09:17:02;;;;;;;;;1.50;1.50;;;;;39.94;29.81;100464.66;4975371;28;50614;-73
2021/06/21 09:19:29;;;;;;;;;2.00;1.00;;;;;39.83;29.51;100474.63;4980227;28;45376;-73
2021/06/21 09:21:55;;;;;;;;;1.25;0.25;;;;;39.86;29.06;100473.09;4983115;28;45465;-74
2021/06/21 09:24:27;;;;;;;;;2.50;0.75;;;;;39.82;27.33;100473.03;4979903;28;46205;-73
2021/06/21 09:27:01;;;;;;;;;1.00;1.00;;;;;38.90;29.09;100471.91;4976912;28;45581;-73
2021/06/21 09:29:40;;;;;;;;;1.25;1.25;;;;;37.47;26.39;100475.22;4971717;28;45543;-73
2021/06/21 09:32:07;;;;;;;;;2.00;1.75;;;;;35.59;28.99;100470.59;4996009;28;45637;-73
2021/06/21 09:34:32;;;;;;;;;1.00;1.00;;;;;34.14;32.44;100469.50;4980226;28;45544;-73
2021/06/21 09:37:18;;;;;;;;;2.00;0.00;;;;;33.71;33.35;100479.03;4980503;28;46107;-73
2021/06/21 09:39:45;;;;;;;;;0.50;0.50;;;;;33.63;33.21;100490.72;4979924;28;45737;-74
2021/06/21 09:42:23;;;;;;;;;0.00;0.00;;;;;33.72;32.92;100496.28;4980465;28;46017;-73
2021/06/21 09:44:52;;;;;;;;;1.25;0.50;;;;;34.05;27.47;100505.88;4980926;28;45588;-72
2021/06/21 09:47:32;;;;;;;;;0.50;0.50;;;;;33.75;32.49;100501.13;4975978;28;45420;-73
2021/06/21 09:50:06;;;;;;;;;1.00;1.00;;;;;33.54;32.32;100503.53;4975936;28;45594;-73
2021/06/21 09:52:48;;;;;;;;;0.00;0.00;;;;;33.60;33.49;100494.88;4975048;28;45582;-73
2021/06/21 09:55:18;;;;;;;;;0.00;0.00;;;;;33.76;34.60;100500.84;4976769;28;45622;-74
2021/06/21 09:57:47;;;;;;;;;0.00;0.00;;;;;33.68;32.08;100504.31;4973822;28;46329;-73
2021/06/21 10:00:15;;;;;;;;;1.00;1.00;;;;;33.39;33.60;100510.16;4976314;28;45533;-72
2021/06/21 10:02:41;;;;;;;;;0.75;0.75;;;;;33.50;32.92;100505.25;4984501;28;49640;-74
2021/06/21 10:05:19;;;;;;;;;0.00;0.00;;;;;33.29;32.22;100515.88;4981090;28;45518;-77
2021/06/21 10:07:45;;;;;;;;;1.00;0.25;;;;;32.74;32.34;100509.28;4980536;28;45393;-77
2021/06/21 10:10:15;;;;;;;;;1.50;0.75;;;;;32.18;34.22;100513.00;4981503;28;45765;-79
2021/06/21 10:12:41;;;;;;;;;1.00;0.00;;;;;31.65;35.57;100507.78;4987303;28;45492;-78
2021/06/21 10:15:09;;;;;;;;;1.00;1.00;;;;;31.40;37.43;100515.25;4981805;28;45659;-79
2021/06/21 10:17:35;;;;;;;;;2.00;0.00;;;;;31.18;37.36;100514.97;4981764;28;46459;-73
2021/06/21 10:20:00;;;;;;;;;0.25;0.25;;;;;30.90;35.54;100516.69;4982870;28;45512;-76
2021/06/21 10:22:27;;;;;;;;;0.25;0.25;;;;;30.68;36.78;100515.25;4973977;28;45575;-75
2021/06/21 10:24:56;;;;;;;;;1.75;0.50;;;;;30.49;35.91;100517.91;4985086;28;45444;-74
2021/06/21 10:27:23;;;;;;;;;1.75;1.75;;;;;30.30;33.71;100504.19;4982858;28;45686;-81
2021/06/21 10:29:50;;;;;;;;;0.00;0.00;;;;;30.08;36.00;100512.78;4985392;28;45435;-77
2021/06/21 10:32:16;;;;;;;;;1.75;1.25;;;;;29.75;36.30;100511.69;4978153;28;45471;-80
2021/06/21 10:34:44;;;;;;;;;1.00;0.50;;;;;29.53;36.05;100510.13;4978094;28;45891;-80
2021/06/21 10:37:27;;;;;;;;;1.25;1.25;;;;;29.24;37.63;100504.56;4984194;28;45626;-79
2021/06/21 10:40:01;;;;;;;;;0.25;0.25;;;;;29.14;32.45;100513.59;4975573;28;46040;-82
2021/06/21 10:42:35;;;;;;;;;3.50;1.75;;;;;28.94;37.38;100505.50;4984220;28;45681;-79
2021/06/21 10:45:02;;;;;;;;;1.50;0.75;;;;;29.20;33.38;100503.50;4985011;28;46022;-79
2021/06/21 10:47:38;;;;;;;;;0.00;0.00;;;;;29.33;37.15;100502.91;4974128;28;48076;-76
2021/06/21 10:50:11;;;;;;;;;1.50;1.50;;;;;29.54;37.10;100502.78;4979716;28;45598;-79
2021/06/21 10:52:54;;;;;;;;;0.00;0.00;;;;;29.77;38.28;100506.75;4986494;28;45911;-77
2021/06/21 10:55:20;;;;;;;;;1.00;0.75;;;;;29.85;36.39;100505.31;4977664;28;45498;-77
2021/06/21 10:57:46;;;;;;;;;1.00;0.25;;;;;29.82;36.53;100508.63;4982725;28;45971;-76
2021/06/21 11:00:17;;;;;;;;;0.50;0.00;;;;;30.26;37.76;100513.22;4978415;28;45539;-78
2021/06/21 11:02:42;;;;;;;;;0.75;0.00;;;;;30.85;36.25;100512.09;4979480;28;45452;-78
2021/06/21 11:05:09;;;;;;;;;0.00;0.00;;;;;31.46;36.35;100505.88;4975736;28;45625;-78
2021/06/21 11:07:36;;;;;;;;;0.00;0.00;;;;;32.11;37.69;100509.84;4978885;28;45940;-80
2021/06/21 11:10:06;;;;;;;;;3.75;0.00;;;;;32.40;35.63;100495.13;4983808;28;45798;-78
2021/06/21 11:12:31;;;;;;;;;0.00;0.00;;;;;32.70;33.40;100508.25;4983295;28;45437;-77
2021/06/21 11:15:06;;;;;;;;;0.75;0.75;;;;;32.48;32.65;100508.09;4978133;28;45496;-79
2021/06/21 11:17:53;;;;;;;;;0.00;0.00;;;;;32.43;31.19;100502.72;4976333;28;57721;-79
2021/06/21 11:20:42;;;;;;;;;0.00;0.00;;;;;32.49;33.40;100507.00;4975071;28;45479;-79
2021/06/21 11:23:31;;;;;;;;;0.75;0.75;;;;;33.13;33.87;100497.00;4975069;28;45637;-77
2021/06/21 11:25:57;;;;;;;;;1.00;1.00;;;;;33.90;32.76;100498.00;4976648;28;45479;-77
2021/06/21 11:28:43;;;;;;;;;2.00;0.75;;;;;34.43;31.77;100488.22;4974998;28;47804;-77